createdAt,value
2019-03-30T00:00:33.599Z,15.47
2019-03-30T00:03:05.633Z,14.07
2019-03-30T00:05:38.372Z,14.90
2019-03-30T00:08:10.318Z,12.10
2019-03-30T00:10:42.994Z,13.93
2019-03-30T00:13:15.339Z,15.03
2019-03-30T00:15:47.194Z,14.97
2019-03-30T00:18:19.771Z,17.83
2019-03-30T00:20:51.865Z,14.33
2019-03-30T00:23:23.655Z,12.77
2019-03-30T00:25:54.968Z,16.33
2019-03-30T00:28:27.238Z,15.53
2019-03-30T00:30:59.062Z,15.23
2019-03-30T00:33:31.538Z,17.33
2019-03-30T00:36:03.146Z,11.10
2019-03-30T00:38:35.244Z,16.23
2019-03-30T00:41:07.089Z,12.20
2019-03-30T00:43:39.206Z,11.53
2019-03-30T00:46:11.914Z,11.17
2019-03-30T00:48:44.101Z,13.73
2019-03-30T00:51:16.131Z,11.90
2019-03-30T00:53:47.883Z,12.60
2019-03-30T00:56:19.985Z,12.57
2019-03-30T00:58:52.682Z,11.73
2019-03-30T01:01:25.389Z,11.53
2019-03-30T01:03:57.149Z,11.70
2019-03-30T01:06:29.175Z,13.90
2019-03-30T01:09:01.777Z,14.47
2019-03-30T01:11:34.313Z,12.83
2019-03-30T01:14:06.647Z,12.33
2019-03-30T01:16:38.936Z,13.83
2019-03-30T01:19:11.610Z,11.70
2019-03-30T01:21:44.095Z,14.97
2019-03-30T01:24:16.188Z,11.90
2019-03-30T01:26:48.211Z,13.33
2019-03-30T01:29:20.794Z,11.00
2019-03-30T01:31:53.192Z,11.47
2019-03-30T01:34:25.315Z,12.37
2019-03-30T01:36:57.721Z,12.50
2019-03-30T01:39:30.070Z,11.17
2019-03-30T01:42:01.714Z,11.53
2019-03-30T01:44:34.213Z,11.37
2019-03-30T01:47:06.167Z,14.47
2019-03-30T01:49:38.252Z,11.57
2019-03-30T01:52:09.794Z,13.70
2019-03-30T01:54:42.023Z,12.73
2019-03-30T01:57:14.082Z,14.13
2019-03-30T01:59:45.335Z,16.63
2019-03-30T02:02:17.659Z,14.13
2019-03-30T02:04:49.687Z,15.63
2019-03-30T02:07:21.784Z,14.07
2019-03-30T02:09:53.510Z,16.47
2019-03-30T02:12:25.785Z,13.30
2019-03-30T02:14:57.877Z,14.93
2019-03-30T02:17:30.449Z,14.50
2019-03-30T02:20:03.040Z,14.93
2019-03-30T02:22:34.857Z,14.57
2019-03-30T02:25:05.972Z,13.97
2019-03-30T02:27:38.202Z,13.63
2019-03-30T02:30:10.786Z,13.40
2019-03-30T02:32:42.700Z,13.30
2019-03-30T02:35:15.194Z,15.67
2019-03-30T02:37:47.278Z,17.07
2019-03-30T02:40:21.127Z,16.20
2019-03-30T02:42:53.817Z,15.90
2019-03-30T02:45:25.733Z,17.23
2019-03-30T02:47:58.146Z,20.23
2019-03-30T02:50:47.437Z,14.90
2019-03-30T02:53:04.038Z,19.47
2019-03-30T02:55:36.120Z,16.37
2019-03-30T02:58:08.803Z,18.43
2019-03-30T03:00:41.027Z,21.30
2019-03-30T03:03:13.712Z,22.43
2019-03-30T03:05:45.669Z,22.90
2019-03-30T03:08:19.257Z,20.00
2019-03-30T03:10:51.326Z,19.70
2019-03-30T03:13:23.464Z,22.37
2019-03-30T03:15:55.946Z,31.43
2019-03-30T03:18:27.874Z,59.27
2019-03-30T03:21:08.002Z,60.90
2019-03-30T03:23:33.514Z,77.77
2019-03-30T03:26:05.564Z,83.23
2019-03-30T03:28:37.858Z,83.90
2019-03-30T03:31:09.839Z,90.10
2019-03-30T03:33:41.955Z,74.50
2019-03-30T03:36:13.314Z,86.37
2019-03-30T03:38:45.548Z,68.23
2019-03-30T03:41:17.646Z,58.43
2019-03-30T03:43:50.073Z,45.70
2019-03-30T03:46:22.599Z,43.77
2019-03-30T03:48:54.855Z,29.50
2019-03-30T03:51:28.414Z,25.33
2019-03-30T03:54:00.845Z,26.80
2019-03-30T03:56:35.242Z,24.20
2019-03-30T03:59:08.672Z,21.93
2019-03-30T04:01:40.944Z,20.90
2019-03-30T04:04:15.183Z,17.70
2019-03-30T04:06:48.789Z,18.70
2019-03-30T04:09:23.957Z,16.63
2019-03-30T04:11:56.165Z,19.30
2019-03-30T04:14:28.834Z,21.70
2019-03-30T04:17:01.158Z,20.43
2019-03-30T04:19:33.321Z,21.07
2019-03-30T04:22:05.595Z,18.97
2019-03-30T04:24:37.878Z,19.43
2019-03-30T04:27:10.681Z,22.30
2019-03-30T04:29:43.676Z,26.20
2019-03-30T04:32:15.650Z,20.20
2019-03-30T04:34:48.373Z,25.87
2019-03-30T04:37:20.498Z,24.13
2019-03-30T04:39:52.531Z,21.73
2019-03-30T04:42:24.562Z,23.43
2019-03-30T04:44:57.003Z,31.87
2019-03-30T04:47:29.308Z,27.93
2019-03-30T04:50:01.227Z,24.33
2019-03-30T04:52:34.930Z,27.03
2019-03-30T04:55:07.136Z,26.73
2019-03-30T04:57:39.387Z,29.37
2019-03-30T05:00:11.564Z,27.37
2019-03-30T05:02:43.865Z,30.43
2019-03-30T05:05:15.913Z,27.80
2019-03-30T05:07:48.011Z,32.10
2019-03-30T05:10:19.814Z,29.53
2019-03-30T05:12:52.058Z,27.20
2019-03-30T05:15:24.516Z,29.40
2019-03-30T05:17:55.642Z,31.50
2019-03-30T05:20:27.495Z,25.17
2019-03-30T05:22:58.770Z,25.03
2019-03-30T05:25:29.892Z,26.90
2019-03-30T05:28:01.133Z,22.50
2019-03-30T05:30:32.675Z,21.87
2019-03-30T05:33:05.826Z,24.50
2019-03-30T05:35:37.940Z,25.63
2019-03-30T05:38:09.932Z,24.90
2019-03-30T05:40:41.314Z,23.00
2019-03-30T05:43:12.512Z,25.60
2019-03-30T05:45:43.601Z,27.10
2019-03-30T05:48:15.383Z,26.02
2019-03-30T05:50:47.059Z,23.90
2019-03-30T05:53:18.331Z,27.77
2019-03-30T05:55:50.106Z,28.17
2019-03-30T05:58:21.237Z,26.67
2019-03-30T06:00:52.712Z,23.73
2019-03-30T06:03:24.268Z,25.77
2019-03-30T06:05:56.080Z,28.07
2019-03-30T06:08:28.039Z,26.90
2019-03-30T06:10:59.403Z,23.60
2019-03-30T06:13:31.368Z,24.37
2019-03-30T06:16:02.882Z,22.63
2019-03-30T06:18:34.500Z,22.57
2019-03-30T06:21:06.010Z,27.70
2019-03-30T06:23:38.261Z,26.50
2019-03-30T06:26:09.762Z,23.53
2019-03-30T06:28:41.998Z,21.17
2019-03-30T06:31:14.179Z,20.07
2019-03-30T06:33:45.476Z,23.40
2019-03-30T06:36:17.801Z,31.97
2019-03-30T06:38:49.146Z,27.07
2019-03-30T06:41:21.103Z,26.40
2019-03-30T06:43:53.138Z,28.32
2019-03-30T06:46:25.024Z,25.50
2019-03-30T06:48:56.373Z,27.67
2019-03-30T06:51:28.452Z,30.27
2019-03-30T06:54:00.231Z,25.67
2019-03-30T06:56:31.783Z,25.27
2019-03-30T06:59:03.365Z,26.00
2019-03-30T07:01:35.709Z,26.33
2019-03-30T07:04:07.101Z,26.33
2019-03-30T07:06:40.527Z,27.17
2019-03-30T07:09:11.720Z,25.47
2019-03-30T07:11:48.753Z,33.07
2019-03-30T07:14:21.851Z,27.07
2019-03-30T07:16:56.610Z,23.00
2019-03-30T07:19:30.983Z,22.93
2019-03-30T07:22:02.955Z,24.80
2019-03-30T07:24:34.759Z,24.33
2019-03-30T07:27:06.174Z,24.60
2019-03-30T07:29:38.236Z,25.52
2019-03-30T07:32:10.343Z,21.80
2019-03-30T07:34:42.379Z,22.50
2019-03-30T07:37:14.903Z,27.60
2019-03-30T07:39:47.234Z,25.93
2019-03-30T07:42:18.786Z,23.67
2019-03-30T07:44:50.713Z,20.33
2019-03-30T07:47:22.041Z,26.33
2019-03-30T07:49:53.460Z,82.40
2019-03-30T07:52:25.142Z,20.60
2019-03-30T07:54:56.985Z,23.83
2019-03-30T07:57:28.649Z,26.00
2019-03-30T08:00:00.044Z,24.33
2019-03-30T08:02:32.565Z,16.97
2019-03-30T08:05:05.269Z,98.20
2019-03-30T08:07:37.079Z,25.37
2019-03-30T08:10:09.107Z,29.73
2019-03-30T08:12:41.335Z,38.33
2019-03-30T08:15:13.525Z,38.00
2019-03-30T08:17:45.539Z,38.47
2019-03-30T08:20:18.018Z,35.63
2019-03-30T08:22:49.955Z,34.57
2019-03-30T08:25:22.089Z,42.97
2019-03-30T08:27:54.139Z,34.67
2019-03-30T08:30:26.486Z,40.77
2019-03-30T08:32:58.256Z,36.20
2019-03-30T08:35:30.995Z,27.17
2019-03-30T08:38:03.261Z,26.20
2019-03-30T08:40:36.806Z,31.50
2019-03-30T08:43:08.808Z,44.27
2019-03-30T08:45:40.627Z,22.40
2019-03-30T08:48:12.375Z,35.40
2019-03-30T08:50:44.680Z,22.50
2019-03-30T08:53:16.424Z,63.70
2019-03-30T08:55:48.046Z,41.47
2019-03-30T08:58:20.045Z,28.27
2019-03-30T09:00:52.149Z,30.60
2019-03-30T09:03:23.584Z,28.77
2019-03-30T09:05:57.076Z,35.73
2019-03-30T09:08:28.881Z,44.33
2019-03-30T09:11:00.807Z,27.17
2019-03-30T09:13:32.727Z,26.67
2019-03-30T09:16:05.053Z,29.83
2019-03-30T09:18:37.021Z,44.47
2019-03-30T09:21:09.447Z,25.43
2019-03-30T09:23:41.273Z,44.10
2019-03-30T09:26:16.498Z,21.47
2019-03-30T09:28:47.431Z,19.50
2019-03-30T09:31:19.460Z,17.07
2019-03-30T09:33:51.387Z,16.83
2019-03-30T09:36:23.251Z,24.80
2019-03-30T09:38:55.456Z,21.97
2019-03-30T09:41:27.160Z,17.77
2019-03-30T09:43:59.168Z,31.67
2019-03-30T09:46:32.011Z,23.93
2019-03-30T09:49:03.904Z,17.62
2019-03-30T09:51:36.056Z,16.30
2019-03-30T09:54:08.016Z,19.62
2019-03-30T09:56:40.173Z,20.53
2019-03-30T09:59:11.696Z,16.97
2019-03-30T10:01:43.535Z,15.93
2019-03-30T10:04:15.591Z,24.47
2019-03-30T10:06:46.736Z,14.67
2019-03-30T10:09:18.175Z,18.90
2019-03-30T10:11:51.037Z,15.07
2019-03-30T10:14:22.205Z,17.50
2019-03-30T10:17:12.039Z,15.83
2019-03-30T10:19:48.124Z,16.83
2019-03-30T10:22:17.724Z,14.53
2019-03-30T10:24:52.595Z,17.90
2019-03-30T10:27:24.461Z,14.17
2019-03-30T10:29:55.734Z,17.03
2019-03-30T10:32:32.111Z,29.57
2019-03-30T10:35:05.067Z,13.87
2019-03-30T10:37:36.948Z,13.17
2019-03-30T10:40:09.344Z,13.53
2019-03-30T10:42:44.177Z,20.37
2019-03-30T10:45:16.015Z,12.77
2019-03-30T10:47:47.657Z,13.60
2019-03-30T10:50:19.536Z,12.90
2019-03-30T10:52:50.787Z,12.07
2019-03-30T10:55:22.067Z,27.53
2019-03-30T10:57:53.243Z,43.73
2019-03-30T11:00:41.808Z,63.07
2019-03-30T11:03:13.659Z,33.30
2019-03-30T11:05:45.521Z,13.73
2019-03-30T11:08:37.173Z,12.30
2019-03-30T11:11:09.189Z,13.70
2019-03-30T11:13:41.426Z,15.20
2019-03-30T11:16:12.811Z,67.00
2019-03-30T11:18:44.203Z,31.37
2019-03-30T11:21:16.115Z,13.20
2019-03-30T11:23:47.916Z,14.90
2019-03-30T11:26:19.693Z,14.70
2019-03-30T11:28:51.599Z,15.23
2019-03-30T11:31:23.890Z,14.03
2019-03-30T11:33:55.279Z,13.87
2019-03-30T11:36:27.282Z,13.40
2019-03-30T11:38:58.448Z,14.70
2019-03-30T11:41:30.138Z,15.70
2019-03-30T11:44:02.013Z,16.27
2019-03-30T11:46:33.500Z,12.80
2019-03-30T11:49:04.856Z,14.40
2019-03-30T11:51:36.184Z,12.87
2019-03-30T11:54:08.102Z,14.00
2019-03-30T11:56:58.054Z,14.37
2019-03-30T11:59:29.198Z,12.77
2019-03-30T12:02:01.256Z,12.50
2019-03-30T12:04:32.945Z,11.80
2019-03-30T12:07:04.856Z,88.50
2019-03-30T12:09:36.841Z,12.77
2019-03-30T12:12:08.732Z,13.77
2019-03-30T12:14:40.269Z,14.60
2019-03-30T12:17:11.836Z,14.57
2019-03-30T12:19:45.891Z,13.07
2019-03-30T12:26:35.574Z,20.97
2019-03-30T12:29:07.293Z,12.50
2019-03-30T12:31:38.793Z,12.30
2019-03-30T12:34:13.117Z,23.47
2019-03-30T12:36:44.362Z,34.60
2019-03-30T12:39:16.714Z,19.83
2019-03-30T12:41:49.265Z,14.37
2019-03-30T12:44:20.971Z,11.70
2019-03-30T12:46:52.966Z,12.63
2019-03-30T12:49:24.438Z,14.40
2019-03-30T12:51:55.609Z,20.20
2019-03-30T12:54:27.281Z,12.07
2019-03-30T12:56:59.428Z,29.67
2019-03-30T12:59:31.629Z,12.13
2019-03-30T13:02:03.049Z,11.77
2019-03-30T13:04:35.554Z,13.20
2019-03-30T13:07:06.971Z,14.63
2019-03-30T13:09:38.776Z,15.57
2019-03-30T13:12:10.247Z,11.27
2019-03-30T13:14:42.578Z,11.97
2019-03-30T13:17:14.400Z,11.67
2019-03-30T13:19:46.507Z,23.40
2019-03-30T13:22:18.647Z,16.07
2019-03-30T13:24:50.532Z,21.50
2019-03-30T13:27:22.344Z,15.70
2019-03-30T13:29:54.446Z,12.37
2019-03-30T13:32:26.116Z,26.30
2019-03-30T13:34:57.908Z,11.23
2019-03-30T13:37:30.049Z,12.47
2019-03-30T13:40:02.111Z,11.63
2019-03-30T13:42:33.708Z,12.57
2019-03-30T13:45:06.179Z,10.73
2019-03-30T13:47:38.175Z,11.07
2019-03-30T13:50:10.827Z,10.67
2019-03-30T13:52:42.434Z,11.70
2019-03-30T13:55:14.679Z,10.83
2019-03-30T13:57:45.974Z,11.23
2019-03-30T14:00:17.421Z,11.00
2019-03-30T14:02:50.242Z,11.53
2019-03-30T14:05:22.178Z,10.97
2019-03-30T14:07:53.997Z,11.57
2019-03-30T14:10:26.736Z,10.80
2019-03-30T14:12:58.884Z,11.77
2019-03-30T14:15:30.855Z,12.00
2019-03-30T14:18:02.877Z,12.60
2019-03-30T14:20:35.054Z,20.30
2019-03-30T14:23:06.827Z,11.57
2019-03-30T14:25:39.020Z,11.73
2019-03-30T14:28:10.686Z,12.17
2019-03-30T14:30:43.142Z,12.00
2019-03-30T14:33:14.853Z,16.17
2019-03-30T14:35:46.835Z,12.30
2019-03-30T14:38:18.890Z,11.80
2019-03-30T14:40:50.680Z,15.30
2019-03-30T14:43:22.881Z,12.27
2019-03-30T14:45:54.580Z,17.23
2019-03-30T14:48:26.776Z,11.83
2019-03-30T14:50:58.966Z,13.93
2019-03-30T14:53:30.888Z,12.10
2019-03-30T14:56:03.563Z,12.60
2019-03-30T14:58:35.224Z,11.53
2019-03-30T15:01:06.763Z,13.47
2019-03-30T15:03:38.402Z,12.90
2019-03-30T15:06:10.518Z,17.23
2019-03-30T15:08:41.975Z,13.83
2019-03-30T15:11:14.069Z,16.83
2019-03-30T15:13:45.958Z,13.47
2019-03-30T15:16:17.652Z,11.23
2019-03-30T15:18:48.968Z,11.70
2019-03-30T15:21:20.133Z,12.90
2019-03-30T15:23:51.756Z,11.97
2019-03-30T15:26:23.534Z,12.43
2019-03-30T15:28:55.829Z,11.87
2019-03-30T15:31:28.033Z,13.23
2019-03-30T15:33:59.540Z,13.10
2019-03-30T15:36:31.314Z,13.13
2019-03-30T15:39:03.008Z,13.60
2019-03-30T15:41:34.966Z,14.63
2019-03-30T15:44:07.001Z,13.53
2019-03-30T15:46:39.143Z,13.00
2019-03-30T15:49:11.111Z,14.38
2019-03-30T15:51:42.886Z,13.27
2019-03-30T15:54:14.798Z,13.67
2019-03-30T15:56:46.221Z,18.20
2019-03-30T15:59:18.540Z,17.47
2019-03-30T16:01:50.044Z,15.20
2019-03-30T16:04:23.189Z,17.57
2019-03-30T16:06:55.024Z,18.17
2019-03-30T16:09:26.567Z,24.70
2019-03-30T16:11:59.238Z,20.50
2019-03-30T16:14:31.198Z,18.07
2019-03-30T16:17:02.818Z,16.47
2019-03-30T16:19:34.326Z,14.83
2019-03-30T16:22:06.681Z,25.27
2019-03-30T16:24:38.212Z,19.90
2019-03-30T16:27:10.012Z,25.67
2019-03-30T16:29:41.998Z,24.73
2019-03-30T16:32:13.287Z,105.00
2019-03-30T16:34:44.517Z,29.57
2019-03-30T16:37:16.033Z,24.53
2019-03-30T16:39:47.473Z,27.77
2019-03-30T16:42:18.740Z,23.40
2019-03-30T16:44:50.262Z,18.80
2019-03-30T16:47:21.903Z,18.63
2019-03-30T16:49:53.526Z,19.20
2019-03-30T16:52:24.713Z,23.77
2019-03-30T16:54:55.912Z,20.70
2019-03-30T16:57:36.814Z,22.57
2019-03-30T17:00:00.543Z,22.47
2019-03-30T17:02:32.278Z,58.23
2019-03-30T17:05:04.321Z,43.77
2019-03-30T17:07:35.605Z,22.43
2019-03-30T17:10:08.462Z,17.73
2019-03-30T17:12:40.529Z,53.50
2019-03-30T17:15:12.086Z,57.70
2019-03-30T17:17:43.202Z,22.33
2019-03-30T17:20:15.052Z,22.73
2019-03-30T17:22:46.721Z,25.33
2019-03-30T17:25:17.906Z,28.63
2019-03-30T17:27:58.161Z,27.57
2019-03-30T17:30:22.098Z,35.57
2019-03-30T17:32:53.514Z,21.50
2019-03-30T17:35:24.737Z,29.00
2019-03-30T17:37:55.987Z,29.27
2019-03-30T17:40:27.694Z,38.67
2019-03-30T17:42:59.149Z,32.80
2019-03-30T17:45:30.691Z,34.83
2019-03-30T17:48:02.093Z,35.03
2019-03-30T17:50:33.254Z,34.50
2019-03-30T17:53:04.919Z,31.43
2019-03-30T17:55:36.189Z,40.90
2019-03-30T17:58:13.426Z,45.37
2019-03-30T18:00:40.222Z,33.33
2019-03-30T18:03:11.942Z,41.03
2019-03-30T18:05:44.582Z,32.90
2019-03-30T18:08:16.575Z,42.47
2019-03-30T18:10:48.008Z,32.60
2019-03-30T18:13:19.356Z,35.90
2019-03-30T18:15:51.020Z,27.93
2019-03-30T18:18:22.094Z,28.40
2019-03-30T18:20:55.315Z,32.57
2019-03-30T18:23:28.205Z,30.37
2019-03-30T18:26:00.054Z,29.23
2019-03-30T18:28:31.821Z,28.47
2019-03-30T18:31:03.070Z,26.90
2019-03-30T18:33:34.379Z,26.13
2019-03-30T18:36:06.403Z,24.67
2019-03-30T18:38:39.966Z,23.37
2019-03-30T18:41:11.264Z,25.73
2019-03-30T18:43:43.282Z,24.40
2019-03-30T18:46:15.193Z,22.57
2019-03-30T18:48:46.567Z,22.30
2019-03-30T18:51:17.696Z,21.90
2019-03-30T18:53:49.620Z,23.60
2019-03-30T18:56:21.090Z,23.87
2019-03-30T18:58:52.827Z,27.37
2019-03-30T19:01:24.074Z,22.63
2019-03-30T19:03:55.183Z,24.90
2019-03-30T19:06:26.488Z,22.67
2019-03-30T19:08:57.720Z,22.33
2019-03-30T19:11:29.440Z,20.70
2019-03-30T19:14:01.442Z,20.60
2019-03-30T19:16:32.696Z,22.93
2019-03-30T19:19:03.874Z,22.90
2019-03-30T19:21:35.709Z,22.90
2019-03-30T19:24:07.347Z,24.70
2019-03-30T19:26:38.824Z,23.90
2019-03-30T19:29:10.053Z,25.43
2019-03-30T19:31:41.168Z,24.70
2019-03-30T19:34:12.827Z,25.40
2019-03-30T19:36:44.547Z,24.70
2019-03-30T19:39:15.844Z,29.10
2019-03-30T19:41:48.031Z,25.17
2019-03-30T19:44:20.012Z,26.23
2019-03-30T19:46:51.746Z,24.33
2019-03-30T19:49:23.282Z,24.80
2019-03-30T19:51:54.736Z,29.27
2019-03-30T19:54:26.926Z,26.57
2019-03-30T19:56:58.113Z,26.37
2019-03-30T19:59:29.913Z,24.93
2019-03-30T20:02:01.658Z,33.07
2019-03-30T20:04:32.897Z,34.90
2019-03-30T20:07:04.462Z,38.67
2019-03-30T20:09:36.196Z,39.20
2019-03-30T20:12:08.315Z,37.17
2019-03-30T20:14:40.053Z,36.63
2019-03-30T20:17:13.506Z,33.30
2019-03-30T20:19:49.538Z,32.63
2019-03-30T20:22:21.652Z,32.87
2019-03-30T20:24:54.634Z,30.10
2019-03-30T20:27:30.454Z,27.97
2019-03-30T20:30:03.749Z,32.83
2019-03-30T20:32:37.805Z,29.17
2019-03-30T20:35:15.879Z,33.90
2019-03-30T20:37:49.676Z,35.30
2019-03-30T20:40:28.842Z,35.60
2019-03-30T20:43:00.256Z,35.30
2019-03-30T20:45:32.074Z,31.77
2019-03-30T20:48:08.368Z,32.37
2019-03-30T20:50:39.922Z,32.83
2019-03-30T20:53:13.478Z,38.03
2019-03-30T20:55:45.294Z,33.87
2019-03-30T20:58:17.275Z,30.70
2019-03-30T21:00:48.775Z,32.00
2019-03-30T21:03:20.524Z,31.87
2019-03-30T21:05:51.921Z,33.27
2019-03-30T21:08:23.858Z,36.47
2019-03-30T21:10:55.849Z,37.03
2019-03-30T21:13:28.297Z,34.60
2019-03-30T21:16:00.127Z,40.47
2019-03-30T21:18:31.470Z,38.80
2019-03-30T21:21:02.979Z,37.37
2019-03-30T21:23:34.444Z,40.57
2019-03-30T21:26:06.418Z,32.43
2019-03-30T21:28:38.141Z,34.53
2019-03-30T21:31:10.156Z,33.63
2019-03-30T21:33:42.538Z,36.63
2019-03-30T21:36:14.231Z,37.77
2019-03-30T21:38:46.075Z,37.40
2019-03-30T21:41:18.025Z,38.43
2019-03-30T21:43:49.960Z,33.63
2019-03-30T21:46:21.870Z,35.47
2019-03-30T21:48:53.669Z,33.93
2019-03-30T21:51:25.552Z,33.60
2019-03-30T21:53:56.847Z,35.43
2019-03-30T21:56:28.391Z,34.77
2019-03-30T21:58:59.658Z,34.50
2019-03-30T22:01:30.955Z,35.77
2019-03-30T22:04:02.327Z,31.90
2019-03-30T22:06:34.171Z,32.23
2019-03-30T22:09:07.314Z,38.17
2019-03-30T22:11:38.549Z,33.23
2019-03-30T22:14:10.071Z,31.83
2019-03-30T22:16:42.847Z,33.33
2019-03-30T22:19:14.954Z,33.50
2019-03-30T22:21:46.315Z,33.20
2019-03-30T22:24:18.711Z,29.70
2019-03-30T22:26:50.982Z,35.33
2019-03-30T22:29:22.875Z,36.23
2019-03-30T22:31:55.683Z,37.93
2019-03-30T22:34:27.756Z,36.23
2019-03-30T22:36:59.264Z,39.03
2019-03-30T22:39:31.238Z,37.80
2019-03-30T22:42:04.067Z,40.90
2019-03-30T22:44:35.818Z,37.97
2019-03-30T22:47:08.300Z,37.90
2019-03-30T22:49:40.702Z,35.97
2019-03-30T22:52:12.838Z,37.70
2019-03-30T22:54:45.353Z,40.37
2019-03-30T22:57:18.212Z,44.30
2019-03-30T22:59:49.447Z,41.20
2019-03-30T23:02:21.466Z,41.37
2019-03-30T23:04:54.026Z,41.43
2019-03-30T23:07:25.911Z,47.03
2019-03-30T23:09:58.416Z,42.37
2019-03-30T23:12:30.870Z,59.77
2019-03-30T23:15:02.595Z,60.57
2019-03-30T23:17:36.017Z,69.70
2019-03-30T23:20:08.286Z,61.13
2019-03-30T23:22:40.419Z,59.57
2019-03-30T23:25:11.819Z,55.00
2019-03-30T23:27:43.907Z,52.53
2019-03-30T23:30:16.197Z,46.87
2019-03-30T23:32:48.022Z,42.90
2019-03-30T23:35:20.497Z,42.10
2019-03-30T23:37:52.348Z,37.13
2019-03-30T23:40:24.262Z,35.73
2019-03-30T23:42:56.222Z,36.10
2019-03-30T23:45:29.037Z,31.93
2019-03-30T23:48:01.536Z,38.00
2019-03-30T23:50:33.627Z,39.73
2019-03-30T23:53:07.427Z,41.73
2019-03-30T23:55:39.667Z,43.57
2019-03-30T23:58:11.180Z,49.93
